createdAt,value
2022-09-04T00:00:40.667Z,992.82
2022-09-04T00:01:44.979Z,992.91
2022-09-04T00:02:40.638Z,992.92
2022-09-04T00:03:40.820Z,992.89
2022-09-04T00:04:40.747Z,992.89
2022-09-04T00:05:40.617Z,992.86
2022-09-04T00:06:40.609Z,992.87
2022-09-04T00:07:40.607Z,992.88
2022-09-04T00:08:40.625Z,992.89
2022-09-04T00:09:40.595Z,992.86
2022-09-04T00:10:40.586Z,992.81
2022-09-04T00:11:40.576Z,992.91
2022-09-04T00:12:40.566Z,992.82
2022-09-04T00:13:40.584Z,992.87
2022-09-04T00:14:40.547Z,992.87
2022-09-04T00:15:40.540Z,992.93
2022-09-04T00:16:40.572Z,992.90
2022-09-04T00:17:40.527Z,993.01
2022-09-04T00:18:40.544Z,992.99
2022-09-04T00:19:40.513Z,993.06
2022-09-04T00:20:40.521Z,993.01
2022-09-04T00:21:40.495Z,993.08
2022-09-04T00:22:40.484Z,993.02
2022-09-04T00:23:40.499Z,992.98
2022-09-04T00:24:40.473Z,993.00
2022-09-04T00:25:40.465Z,993.00
2022-09-04T00:26:40.463Z,993.00
2022-09-04T00:27:40.446Z,993.00
2022-09-04T00:28:40.464Z,992.96
2022-09-04T00:29:40.437Z,992.94
2022-09-04T00:30:40.463Z,992.96
2022-09-04T00:31:40.421Z,992.95
2022-09-04T00:32:40.415Z,992.97
2022-09-04T00:33:40.428Z,992.92
2022-09-04T00:34:40.391Z,993.00
2022-09-04T00:35:40.383Z,993.05
2022-09-04T00:36:40.384Z,993.02
2022-09-04T00:37:40.366Z,992.97
2022-09-04T00:38:40.393Z,993.00
2022-09-04T00:39:40.417Z,993.06
2022-09-04T00:40:40.350Z,992.99
2022-09-04T00:41:40.337Z,993.00
2022-09-04T00:42:40.335Z,993.04
2022-09-04T00:43:40.341Z,993.04
2022-09-04T00:44:40.312Z,993.05
2022-09-04T00:45:40.335Z,993.11
2022-09-04T00:46:40.304Z,993.10
2022-09-04T00:47:40.295Z,993.18
2022-09-04T00:48:40.312Z,993.18
2022-09-04T00:49:40.277Z,993.20
2022-09-04T00:50:40.264Z,993.31
2022-09-04T00:51:40.262Z,993.28
2022-09-04T00:52:40.250Z,993.26
2022-09-04T00:53:40.272Z,993.31
2022-09-04T00:54:40.229Z,993.28
2022-09-04T00:55:40.222Z,993.28
2022-09-04T00:56:40.223Z,993.26
2022-09-04T00:57:40.218Z,993.28
2022-09-04T00:58:40.230Z,993.27
2022-09-04T00:59:40.190Z,993.29
2022-09-04T01:00:40.192Z,993.31
2022-09-04T01:01:40.304Z,993.29
2022-09-04T01:02:40.175Z,993.34
2022-09-04T01:03:40.158Z,993.35
2022-09-04T01:04:40.179Z,993.32
2022-09-04T01:05:40.139Z,993.37
2022-09-04T01:06:40.137Z,993.38
2022-09-04T01:07:40.125Z,993.38
2022-09-04T01:08:40.123Z,993.33
2022-09-04T01:09:40.134Z,993.38
2022-09-04T01:10:40.102Z,993.36
2022-09-04T01:11:40.094Z,993.35
2022-09-04T01:12:40.087Z,993.43
2022-09-04T01:13:40.083Z,993.39
2022-09-04T01:14:40.096Z,993.37
2022-09-04T01:15:40.065Z,993.44
2022-09-04T01:16:40.108Z,993.41
2022-09-04T01:17:40.053Z,993.43
2022-09-04T01:18:40.028Z,993.41
2022-09-04T01:19:40.057Z,993.41
2022-09-04T01:20:40.015Z,993.45
2022-09-04T01:21:40.008Z,993.48
2022-09-04T01:22:40.005Z,993.49
2022-09-04T01:23:40.029Z,993.45
2022-09-04T01:24:39.984Z,993.51
2022-09-04T01:25:39.975Z,993.50
2022-09-04T01:26:39.979Z,993.53
2022-09-04T01:27:39.969Z,993.49
2022-09-04T01:28:39.984Z,993.55
2022-09-04T01:29:39.949Z,993.51
2022-09-04T01:30:39.947Z,993.50
2022-09-04T01:31:39.955Z,993.56
2022-09-04T01:32:39.925Z,993.52
2022-09-04T01:33:39.946Z,993.47
2022-09-04T01:34:39.909Z,993.46
2022-09-04T01:35:39.908Z,993.52
2022-09-04T01:36:39.895Z,993.59
2022-09-04T01:37:39.892Z,993.59
2022-09-04T01:38:39.904Z,993.58
2022-09-04T01:39:39.927Z,993.52
2022-09-04T01:40:39.859Z,993.57
2022-09-04T01:41:39.856Z,993.59
2022-09-04T01:42:39.849Z,993.54
2022-09-04T01:43:39.876Z,993.57
2022-09-04T01:44:39.831Z,993.57
2022-09-04T01:45:39.895Z,993.53
2022-09-04T01:46:39.814Z,993.61
2022-09-04T01:47:39.806Z,993.56
2022-09-04T01:48:39.826Z,993.57
2022-09-04T01:49:40.790Z,993.54
2022-09-04T01:50:39.783Z,993.56
2022-09-04T01:51:39.771Z,993.54
2022-09-04T01:52:39.768Z,993.56
2022-09-04T01:53:39.792Z,993.61
2022-09-04T01:54:39.753Z,993.49
2022-09-04T01:55:39.747Z,993.58
2022-09-04T01:56:39.740Z,993.61
2022-09-04T01:57:39.723Z,993.62
2022-09-04T01:58:39.749Z,993.64
2022-09-04T01:59:39.716Z,993.68
2022-09-04T02:00:39.713Z,993.69
2022-09-04T02:01:39.703Z,993.70
2022-09-04T02:02:39.684Z,993.70
2022-09-04T02:03:39.706Z,993.64
2022-09-04T02:04:39.677Z,993.73
2022-09-04T02:05:39.666Z,993.69
2022-09-04T02:06:39.657Z,993.71
2022-09-04T02:07:39.654Z,993.65
2022-09-04T02:08:39.672Z,993.76
2022-09-04T02:09:39.632Z,993.76
2022-09-04T02:10:39.636Z,993.69
2022-09-04T02:11:39.615Z,993.75
2022-09-04T02:12:39.612Z,993.68
2022-09-04T02:13:39.634Z,993.75
2022-09-04T02:14:39.594Z,993.74
2022-09-04T02:15:39.592Z,993.82
2022-09-04T02:16:39.617Z,993.76
2022-09-04T02:17:39.575Z,993.72
2022-09-04T02:18:39.589Z,993.74
2022-09-04T02:19:40.561Z,993.73
2022-09-04T02:20:39.549Z,993.77
2022-09-04T02:21:39.538Z,993.70
2022-09-04T02:22:39.535Z,993.74
2022-09-04T02:23:39.555Z,993.77
2022-09-04T02:24:39.525Z,993.72
2022-09-04T02:25:39.512Z,993.72
2022-09-04T02:26:39.501Z,993.77
2022-09-04T02:27:39.496Z,993.74
2022-09-04T02:28:39.521Z,993.68
2022-09-04T02:29:39.480Z,993.73
2022-09-04T02:30:39.469Z,993.72
2022-09-04T02:31:39.496Z,993.69
2022-09-04T02:32:39.462Z,993.70
2022-09-04T02:33:39.474Z,993.72
2022-09-04T02:34:39.447Z,993.77
2022-09-04T02:35:39.428Z,993.67
2022-09-04T02:36:39.428Z,993.66
2022-09-04T02:37:39.432Z,993.69
2022-09-04T02:38:39.442Z,993.70
2022-09-04T02:39:39.454Z,993.72
2022-09-04T02:40:39.396Z,993.80
2022-09-04T02:41:39.394Z,993.80
2022-09-04T02:42:39.384Z,993.78
2022-09-04T02:43:39.372Z,993.77
2022-09-04T02:44:39.395Z,993.82
2022-09-04T02:45:39.358Z,993.81
2022-09-04T02:46:43.136Z,993.77
2022-09-04T02:47:40.344Z,993.72
2022-09-04T02:48:39.334Z,993.89
2022-09-04T02:49:39.361Z,993.85
2022-09-04T02:50:39.320Z,993.83
2022-09-04T02:51:39.314Z,993.93
2022-09-04T02:52:39.312Z,993.94
2022-09-04T02:53:39.294Z,993.93
2022-09-04T02:54:39.311Z,993.95
2022-09-04T02:55:39.286Z,993.95
2022-09-04T02:56:39.279Z,993.91
2022-09-04T02:57:39.249Z,993.89
2022-09-04T02:58:40.264Z,993.88
2022-09-04T02:59:39.291Z,993.85
2022-09-04T03:00:39.319Z,993.92
2022-09-04T03:01:39.291Z,993.94
2022-09-04T03:02:39.229Z,993.97
2022-09-04T03:03:39.233Z,993.87
2022-09-04T03:04:39.240Z,993.90
2022-09-04T03:05:39.215Z,993.85
2022-09-04T03:06:39.200Z,993.90
2022-09-04T03:07:39.194Z,993.88
2022-09-04T03:08:39.190Z,993.90
2022-09-04T03:09:39.199Z,993.93
2022-09-04T03:10:39.168Z,993.92
2022-09-04T03:11:39.158Z,993.92
2022-09-04T03:12:39.156Z,993.93
2022-09-04T03:13:39.150Z,993.91
2022-09-04T03:14:39.164Z,993.92
2022-09-04T03:15:39.132Z,993.93
2022-09-04T03:16:39.168Z,993.91
2022-09-04T03:17:39.118Z,993.93
2022-09-04T03:18:39.108Z,993.98
2022-09-04T03:19:39.131Z,994.05
2022-09-04T03:20:39.093Z,993.98
2022-09-04T03:21:39.077Z,994.03
2022-09-04T03:22:39.081Z,994.08
2022-09-04T03:23:39.063Z,994.04
2022-09-04T03:24:39.091Z,994.04
2022-09-04T03:25:39.053Z,994.01
2022-09-04T03:26:39.043Z,994.05
2022-09-04T03:27:39.037Z,994.04
2022-09-04T03:28:39.029Z,994.00
2022-09-04T03:29:39.047Z,994.03
2022-09-04T03:30:39.019Z,994.02
2022-09-04T03:31:39.065Z,994.02
2022-09-04T03:32:38.996Z,994.07
2022-09-04T03:33:40.092Z,994.06
2022-09-04T03:34:39.013Z,994.06
2022-09-04T03:35:38.972Z,994.09
2022-09-04T03:36:38.968Z,994.03
2022-09-04T03:37:38.960Z,994.02
2022-09-04T03:38:38.951Z,994.08
2022-09-04T03:39:38.979Z,994.08
2022-09-04T03:40:38.956Z,994.14
2022-09-04T03:41:38.921Z,994.16
2022-09-04T03:42:38.915Z,994.10
2022-09-04T03:43:38.905Z,994.16
2022-09-04T03:44:38.898Z,994.16
2022-09-04T03:45:38.918Z,994.13
2022-09-04T03:46:39.104Z,994.18
2022-09-04T03:47:38.869Z,994.14
2022-09-04T03:48:38.866Z,994.17
2022-09-04T03:49:38.854Z,994.15
2022-09-04T03:50:38.878Z,994.19
2022-09-04T03:51:38.843Z,994.16
2022-09-04T03:52:38.833Z,994.14
2022-09-04T03:53:38.827Z,994.21
2022-09-04T03:54:38.819Z,994.21
2022-09-04T03:55:38.834Z,994.21
2022-09-04T03:56:38.803Z,994.21
2022-09-04T03:57:38.812Z,994.19
2022-09-04T03:58:38.789Z,994.19
2022-09-04T03:59:38.772Z,994.23
2022-09-04T04:00:39.845Z,994.19
2022-09-04T04:01:38.769Z,994.29
2022-09-04T04:02:38.812Z,994.24
2022-09-04T04:03:38.749Z,994.16
2022-09-04T04:04:38.738Z,994.22
2022-09-04T04:05:38.761Z,994.19
2022-09-04T04:06:38.722Z,994.20
2022-09-04T04:07:38.713Z,994.25
2022-09-04T04:08:38.710Z,994.26
2022-09-04T04:09:38.699Z,994.25
2022-09-04T04:10:38.719Z,994.22
2022-09-04T04:11:43.268Z,994.25
2022-09-04T04:12:39.672Z,994.24
2022-09-04T04:13:38.668Z,994.32
2022-09-04T04:14:38.658Z,994.24
2022-09-04T04:15:38.683Z,994.28
2022-09-04T04:16:38.711Z,994.30
2022-09-04T04:17:38.634Z,994.35
2022-09-04T04:18:38.620Z,994.35
2022-09-04T04:19:38.619Z,994.35
2022-09-04T04:20:38.637Z,994.36
2022-09-04T04:21:38.605Z,994.41
2022-09-04T04:22:38.598Z,994.34
2022-09-04T04:23:38.586Z,994.35
2022-09-04T04:24:38.582Z,994.40
2022-09-04T04:25:38.600Z,994.36
2022-09-04T04:26:38.561Z,994.32
2022-09-04T04:27:38.558Z,994.40
2022-09-04T04:28:38.555Z,994.37
2022-09-04T04:29:38.541Z,994.37
2022-09-04T04:30:38.533Z,994.43
2022-09-04T04:31:38.575Z,994.39
2022-09-04T04:32:38.521Z,994.35
2022-09-04T04:33:38.509Z,994.41
2022-09-04T04:34:38.503Z,994.42
2022-09-04T04:35:38.492Z,994.44
2022-09-04T04:36:38.506Z,994.47
2022-09-04T04:37:38.478Z,994.40
2022-09-04T04:38:38.463Z,994.47
2022-09-04T04:39:38.485Z,994.47
2022-09-04T04:40:38.448Z,994.50
2022-09-04T04:41:38.466Z,994.45
2022-09-04T04:42:38.436Z,994.47
2022-09-04T04:43:38.427Z,994.52
2022-09-04T04:44:38.417Z,994.50
2022-09-04T04:45:38.433Z,994.54
2022-09-04T04:46:38.431Z,994.56
2022-09-04T04:47:39.394Z,994.56
2022-09-04T04:48:38.390Z,994.60
2022-09-04T04:49:38.379Z,994.55
2022-09-04T04:50:38.395Z,994.63
2022-09-04T04:51:38.363Z,994.62
2022-09-04T04:52:38.357Z,994.61
2022-09-04T04:53:38.346Z,994.62
2022-09-04T04:54:38.337Z,994.65
2022-09-04T04:55:38.356Z,994.59
2022-09-04T04:56:38.320Z,994.64
2022-09-04T04:57:38.314Z,994.68
2022-09-04T04:58:38.309Z,994.68
2022-09-04T04:59:38.299Z,994.74
2022-09-04T05:00:38.328Z,994.71
2022-09-04T05:01:38.353Z,994.71
2022-09-04T05:02:38.362Z,994.67
2022-09-04T05:03:38.265Z,994.76
2022-09-04T05:04:38.264Z,994.66
2022-09-04T05:05:38.304Z,994.71
2022-09-04T05:06:38.244Z,994.70
2022-09-04T05:07:38.233Z,994.79
2022-09-04T05:08:38.224Z,994.79
2022-09-04T05:09:38.216Z,994.78
2022-09-04T05:10:38.212Z,994.80
2022-09-04T05:11:38.230Z,994.90
2022-09-04T05:12:38.197Z,994.85
2022-09-04T05:13:38.177Z,994.82
2022-09-04T05:14:39.179Z,994.93
2022-09-04T05:15:58.209Z,994.91
2022-09-04T05:16:40.236Z,994.89
2022-09-04T05:17:38.159Z,994.96
2022-09-04T05:18:38.151Z,994.94
2022-09-04T05:19:38.146Z,994.99
2022-09-04T05:20:38.134Z,995.00
2022-09-04T05:21:38.156Z,995.10
2022-09-04T05:22:38.120Z,995.02
2022-09-04T05:23:38.114Z,995.08
2022-09-04T05:24:38.107Z,995.13
2022-09-04T05:25:38.096Z,995.13
2022-09-04T05:26:38.121Z,995.12
2022-09-04T05:27:38.081Z,995.13
2022-09-04T05:28:38.074Z,995.20
2022-09-04T05:29:38.066Z,995.28
2022-09-04T05:30:38.057Z,995.28
2022-09-04T05:31:38.245Z,995.27
2022-09-04T05:32:38.043Z,995.30
2022-09-04T05:33:38.035Z,995.27
2022-09-04T05:34:38.026Z,995.34
2022-09-04T05:35:38.023Z,995.34
2022-09-04T05:36:38.047Z,995.44
2022-09-04T05:37:37.999Z,995.42
2022-09-04T05:38:37.994Z,995.47
2022-09-04T05:39:38.025Z,995.51
2022-09-04T05:40:37.977Z,995.49
2022-09-04T05:41:37.993Z,995.59
2022-09-04T05:42:37.962Z,995.59
2022-09-04T05:43:37.956Z,995.64
2022-09-04T05:44:37.944Z,995.58
2022-09-04T05:45:37.939Z,995.60
2022-09-04T05:46:38.002Z,995.60
2022-09-04T05:47:37.924Z,995.71
2022-09-04T05:48:37.915Z,995.73
2022-09-04T05:49:37.906Z,995.75
2022-09-04T05:50:37.899Z,995.73
2022-09-04T05:51:37.917Z,995.77
2022-09-04T05:52:37.884Z,995.81
2022-09-04T05:53:37.878Z,995.85
2022-09-04T05:54:37.867Z,995.87
2022-09-04T05:55:37.859Z,995.93
2022-09-04T05:56:37.885Z,995.89
2022-09-04T05:57:37.843Z,995.90
2022-09-04T05:58:37.841Z,995.86
2022-09-04T05:59:37.828Z,995.93
2022-09-04T06:00:37.827Z,995.99
2022-09-04T06:01:37.868Z,995.92
2022-09-04T06:02:37.869Z,996.01
2022-09-04T06:03:37.800Z,995.93
2022-09-04T06:04:37.797Z,995.87
2022-09-04T06:05:37.767Z,995.93
2022-09-04T06:06:38.805Z,995.89
2022-09-04T06:07:37.766Z,995.90
2022-09-04T06:08:37.765Z,995.82
2022-09-04T06:09:37.765Z,995.88
2022-09-04T06:10:37.749Z,995.88
2022-09-04T06:11:37.743Z,995.85
2022-09-04T06:12:37.763Z,995.94
2022-09-04T06:13:37.730Z,995.95
2022-09-04T06:14:37.721Z,995.96
2022-09-04T06:15:37.761Z,995.86
2022-09-04T06:16:37.734Z,995.98
2022-09-04T06:17:37.699Z,995.96
2022-09-04T06:18:37.697Z,995.96
2022-09-04T06:19:37.683Z,995.97
2022-09-04T06:20:37.677Z,996.06
2022-09-04T06:21:37.698Z,995.92
2022-09-04T06:22:37.665Z,995.95
2022-09-04T06:23:37.658Z,995.97
2022-09-04T06:24:37.651Z,995.89
2022-09-04T06:25:37.640Z,995.98
2022-09-04T06:26:37.659Z,995.97
2022-09-04T06:27:37.633Z,995.98
2022-09-04T06:28:37.621Z,995.96
2022-09-04T06:29:37.617Z,995.98
2022-09-04T06:30:37.612Z,996.03
2022-09-04T06:31:37.677Z,995.95
2022-09-04T06:32:37.596Z,995.95
2022-09-04T06:33:37.592Z,996.06
2022-09-04T06:34:37.585Z,996.06
2022-09-04T06:35:37.579Z,996.13
2022-09-04T06:36:37.596Z,996.03
2022-09-04T06:37:37.566Z,996.03
2022-09-04T06:38:37.565Z,996.01
2022-09-04T06:39:37.570Z,996.02
2022-09-04T06:40:37.543Z,996.06
2022-09-04T06:41:37.563Z,996.04
2022-09-04T06:42:37.530Z,996.07
2022-09-04T06:43:37.960Z,996.09
2022-09-04T06:44:37.515Z,996.06
2022-09-04T06:45:37.512Z,996.13
2022-09-04T06:46:37.527Z,996.08
2022-09-04T06:47:37.519Z,996.13
2022-09-04T06:48:37.492Z,996.11
2022-09-04T06:49:37.482Z,996.17
2022-09-04T06:50:37.473Z,996.11
2022-09-04T06:51:37.495Z,996.12
2022-09-04T06:52:37.460Z,996.16
2022-09-04T06:53:37.453Z,996.11
2022-09-04T06:54:37.445Z,996.13
2022-09-04T06:55:37.442Z,996.17
2022-09-04T06:56:37.461Z,996.21
2022-09-04T06:57:37.428Z,996.23
2022-09-04T06:58:37.421Z,996.19
2022-09-04T06:59:37.418Z,996.13
2022-09-04T07:00:37.411Z,996.26
2022-09-04T07:01:37.528Z,996.19
2022-09-04T07:02:37.532Z,996.26
2022-09-04T07:03:37.388Z,996.28
2022-09-04T07:04:37.377Z,996.27
2022-09-04T07:05:37.374Z,996.31
2022-09-04T07:06:37.396Z,996.30
2022-09-04T07:07:37.363Z,996.32
2022-09-04T07:08:37.356Z,996.36
2022-09-04T07:09:37.350Z,996.38
2022-09-04T07:10:37.346Z,996.36
2022-09-04T07:11:37.362Z,996.43
2022-09-04T07:12:37.332Z,996.37
2022-09-04T07:13:37.323Z,996.39
2022-09-04T07:14:37.317Z,996.36
2022-09-04T07:15:37.360Z,996.43
2022-09-04T07:16:37.329Z,996.45
2022-09-04T07:17:37.304Z,996.53
2022-09-04T07:18:37.291Z,996.39
2022-09-04T07:19:37.284Z,996.44
2022-09-04T07:20:37.278Z,996.51
2022-09-04T07:21:37.295Z,996.45
2022-09-04T07:22:37.267Z,996.46
2022-09-04T07:23:37.261Z,996.45
2022-09-04T07:24:37.256Z,996.48
2022-09-04T07:25:37.249Z,996.51
2022-09-04T07:26:37.268Z,996.50
2022-09-04T07:27:37.238Z,996.46
2022-09-04T07:28:37.230Z,996.47
2022-09-04T07:29:37.221Z,996.46
2022-09-04T07:30:37.221Z,996.42
2022-09-04T07:31:37.257Z,996.45
2022-09-04T07:32:37.207Z,996.43
2022-09-04T07:33:37.203Z,996.48
2022-09-04T07:34:37.196Z,996.40
2022-09-04T07:35:37.187Z,996.37
2022-09-04T07:36:37.213Z,996.37
2022-09-04T07:37:37.178Z,996.38
2022-09-04T07:38:37.169Z,996.40
2022-09-04T07:39:37.221Z,996.34
2022-09-04T07:40:38.209Z,996.33
2022-09-04T07:41:37.184Z,996.41
2022-09-04T07:42:37.144Z,996.42
2022-09-04T07:43:37.139Z,996.42
2022-09-04T07:44:37.131Z,996.45
2022-09-04T07:45:37.125Z,996.49
2022-09-04T07:46:37.153Z,996.48
2022-09-04T07:47:37.137Z,996.47
2022-09-04T07:48:37.110Z,996.47
2022-09-04T07:49:37.101Z,996.52
2022-09-04T07:50:37.098Z,996.53
2022-09-04T07:51:37.089Z,996.43
2022-09-04T07:52:37.110Z,996.51
2022-09-04T07:53:37.076Z,996.50
2022-09-04T07:54:37.070Z,996.53
2022-09-04T07:55:37.065Z,996.46
2022-09-04T07:56:37.062Z,996.53
2022-09-04T07:57:37.081Z,996.48
2022-09-04T07:58:37.046Z,996.57
2022-09-04T07:59:37.039Z,996.48
2022-09-04T08:00:37.027Z,996.49
2022-09-04T08:01:40.385Z,996.56
2022-09-04T08:02:38.064Z,996.46
2022-09-04T08:03:37.024Z,996.43
2022-09-04T08:04:38.057Z,996.46
2022-09-04T08:05:37.010Z,996.45
2022-09-04T08:06:37.005Z,996.42
2022-09-04T08:07:37.020Z,996.42
2022-09-04T08:08:36.998Z,996.45
2022-09-04T08:09:36.987Z,996.52
2022-09-04T08:10:36.978Z,996.48
2022-09-04T08:11:36.973Z,996.50
2022-09-04T08:12:36.992Z,996.45
2022-09-04T08:13:36.962Z,996.44
2022-09-04T08:14:36.954Z,996.43
2022-09-04T08:15:40.982Z,996.45
2022-09-04T08:16:37.945Z,996.50
2022-09-04T08:17:36.961Z,996.49
2022-09-04T08:18:36.932Z,996.52
2022-09-04T08:19:36.926Z,996.53
2022-09-04T08:20:36.933Z,996.56
2022-09-04T08:21:36.913Z,996.60
2022-09-04T08:22:36.936Z,996.58
2022-09-04T08:23:36.901Z,996.56
2022-09-04T08:24:36.896Z,996.58
2022-09-04T08:25:36.890Z,996.56
2022-09-04T08:26:36.882Z,996.54
2022-09-04T08:27:40.463Z,996.57
2022-09-04T08:28:37.872Z,996.53
2022-09-04T08:29:36.866Z,996.50
2022-09-04T08:30:36.883Z,996.57
2022-09-04T08:31:36.850Z,996.53
2022-09-04T08:32:38.227Z,996.49
2022-09-04T08:33:36.841Z,996.54
2022-09-04T08:34:36.828Z,996.55
2022-09-04T08:35:36.827Z,996.49
2022-09-04T08:36:36.827Z,996.47
2022-09-04T08:37:36.844Z,996.55
2022-09-04T08:38:36.812Z,996.50
2022-09-04T08:39:36.857Z,996.48
2022-09-04T08:40:36.804Z,996.50
2022-09-04T08:41:36.790Z,996.58
2022-09-04T08:42:36.816Z,996.54
2022-09-04T08:43:36.782Z,996.46
2022-09-04T08:44:36.776Z,996.55
2022-09-04T08:45:42.663Z,996.61
2022-09-04T08:46:37.840Z,996.62
2022-09-04T08:47:36.784Z,996.60
2022-09-04T08:48:36.750Z,996.63
2022-09-04T08:49:36.745Z,996.64
2022-09-04T08:50:36.740Z,996.62
2022-09-04T08:51:36.738Z,996.65
2022-09-04T08:52:36.755Z,996.63
2022-09-04T08:53:36.711Z,996.62
2022-09-04T08:54:37.720Z,996.63
2022-09-04T08:55:36.697Z,996.69
2022-09-04T08:56:37.703Z,996.72
2022-09-04T08:57:36.728Z,996.72
2022-09-04T08:58:36.696Z,996.74
2022-09-04T08:59:36.689Z,996.73
2022-09-04T09:00:36.681Z,996.70
2022-09-04T09:01:36.748Z,996.69
2022-09-04T09:02:36.725Z,996.69
2022-09-04T09:03:36.658Z,996.73
2022-09-04T09:04:36.654Z,996.67
2022-09-04T09:05:36.649Z,996.75
2022-09-04T09:06:36.643Z,996.71
2022-09-04T09:07:36.668Z,996.67
2022-09-04T09:08:36.632Z,996.66
2022-09-04T09:09:36.632Z,996.64
2022-09-04T09:10:36.623Z,996.63
2022-09-04T09:11:36.616Z,996.62
2022-09-04T09:12:41.485Z,996.66
2022-09-04T09:13:37.604Z,996.62
2022-09-04T09:14:36.599Z,996.65
2022-09-04T09:15:36.590Z,996.60
2022-09-04T09:16:36.639Z,996.67
2022-09-04T09:17:36.586Z,996.61
2022-09-04T09:18:36.604Z,996.64
2022-09-04T09:19:36.573Z,996.63
2022-09-04T09:20:36.559Z,996.65
2022-09-04T09:21:36.559Z,996.67
2022-09-04T09:22:36.552Z,996.67
2022-09-04T09:23:36.574Z,996.66
2022-09-04T09:24:36.536Z,996.60
2022-09-04T09:25:38.963Z,996.63
2022-09-04T09:26:36.523Z,996.70
2022-09-04T09:27:36.518Z,996.68
2022-09-04T09:28:36.539Z,996.67
2022-09-04T09:29:36.504Z,996.63
2022-09-04T09:30:36.535Z,996.59
2022-09-04T09:31:36.493Z,996.60
2022-09-04T09:32:36.484Z,996.65
2022-09-04T09:33:36.509Z,996.61
2022-09-04T09:34:36.473Z,996.59
2022-09-04T09:35:36.475Z,996.54
2022-09-04T09:36:36.466Z,996.58
2022-09-04T09:37:36.484Z,996.58
2022-09-04T09:38:36.453Z,996.56
2022-09-04T09:39:36.485Z,996.54
2022-09-04T09:40:36.445Z,996.52
2022-09-04T09:41:36.432Z,996.53
2022-09-04T09:42:36.451Z,996.52
2022-09-04T09:43:36.421Z,996.47
2022-09-04T09:44:36.421Z,996.48
2022-09-04T09:45:36.490Z,996.48
2022-09-04T09:46:36.402Z,996.48
2022-09-04T09:47:36.417Z,996.41
2022-09-04T09:48:36.389Z,996.45
2022-09-04T09:49:36.384Z,996.44
2022-09-04T09:50:36.371Z,996.46
2022-09-04T09:51:37.061Z,996.41
2022-09-04T09:52:36.383Z,996.39
2022-09-04T09:53:36.355Z,996.43
2022-09-04T09:54:36.357Z,996.41
2022-09-04T09:55:36.337Z,996.45
2022-09-04T09:56:36.334Z,996.39
2022-09-04T09:57:36.353Z,996.42
2022-09-04T09:58:36.319Z,996.43
2022-09-04T09:59:36.321Z,996.42
2022-09-04T10:00:36.302Z,996.41
2022-09-04T10:01:36.359Z,996.36
2022-09-04T10:02:36.384Z,996.38
2022-09-04T10:03:36.283Z,996.38
2022-09-04T10:04:36.284Z,996.41
2022-09-04T10:05:36.271Z,996.31
2022-09-04T10:06:36.269Z,996.34
2022-09-04T10:07:36.280Z,996.32
2022-09-04T10:08:36.541Z,996.37
2022-09-04T10:09:36.239Z,996.37
2022-09-04T10:10:36.232Z,996.30
2022-09-04T10:11:36.229Z,996.30
2022-09-04T10:12:36.243Z,996.22
2022-09-04T10:13:36.224Z,996.28
2022-09-04T10:14:36.209Z,996.23
2022-09-04T10:15:36.203Z,996.21
2022-09-04T10:16:36.254Z,996.20
2022-09-04T10:17:36.208Z,996.25
2022-09-04T10:18:36.184Z,996.25
2022-09-04T10:19:39.028Z,996.26
2022-09-04T10:20:37.161Z,996.23
2022-09-04T10:21:36.149Z,996.19
2022-09-04T10:22:36.175Z,996.19
2022-09-04T10:23:36.149Z,996.20
2022-09-04T10:24:36.141Z,996.22
2022-09-04T10:25:36.122Z,996.21
2022-09-04T10:26:36.116Z,996.14
2022-09-04T10:27:38.584Z,996.21
2022-09-04T10:28:37.106Z,996.18
2022-09-04T10:29:36.093Z,996.16
2022-09-04T10:30:36.123Z,996.14
2022-09-04T10:31:36.076Z,996.10
2022-09-04T10:32:36.098Z,996.12
2022-09-04T10:33:36.062Z,996.13
2022-09-04T10:34:36.052Z,996.08
2022-09-04T10:35:36.046Z,996.13
2022-09-04T10:36:36.045Z,996.09
2022-09-04T10:37:36.062Z,996.06
2022-09-04T10:38:36.025Z,996.04
2022-09-04T10:39:36.078Z,996.03
2022-09-04T10:40:39.630Z,996.10
2022-09-04T10:41:37.006Z,996.08
2022-09-04T10:42:36.035Z,996.08
2022-09-04T10:43:35.992Z,996.08
2022-09-04T10:44:35.984Z,996.08
2022-09-04T10:45:36.021Z,996.02
2022-09-04T10:46:35.971Z,996.03
2022-09-04T10:47:35.991Z,996.05
2022-09-04T10:48:35.963Z,996.00
2022-09-04T10:49:35.950Z,996.04
2022-09-04T10:50:35.944Z,996.03
2022-09-04T10:51:35.941Z,996.04
2022-09-04T10:52:35.960Z,996.00
2022-09-04T10:53:35.905Z,995.99
2022-09-04T10:54:36.918Z,996.00
2022-09-04T10:55:35.904Z,995.98
2022-09-04T10:56:35.899Z,995.97
2022-09-04T10:57:35.925Z,995.99
2022-09-04T10:58:35.885Z,995.96
2022-09-04T10:59:35.909Z,996.00
2022-09-04T11:00:35.872Z,995.93
2022-09-04T11:01:35.928Z,996.02
2022-09-04T11:02:35.917Z,996.00
2022-09-04T11:03:36.851Z,995.99
2022-09-04T11:04:35.833Z,996.01
2022-09-04T11:05:35.829Z,995.99
2022-09-04T11:06:35.829Z,995.99
2022-09-04T11:07:35.841Z,996.01
2022-09-04T11:08:35.810Z,995.99
2022-09-04T11:09:35.810Z,996.02
2022-09-04T11:10:35.818Z,996.00
2022-09-04T11:11:35.783Z,995.99
2022-09-04T11:12:35.828Z,995.93
2022-09-04T11:13:35.781Z,995.94
2022-09-04T11:14:35.766Z,995.98
2022-09-04T11:15:35.764Z,995.98
2022-09-04T11:16:35.808Z,995.97
2022-09-04T11:17:35.775Z,995.98
2022-09-04T11:18:35.737Z,995.94
2022-09-04T11:19:35.733Z,995.92
2022-09-04T11:20:35.722Z,995.97
2022-09-04T11:21:35.711Z,995.99
2022-09-04T11:22:35.739Z,995.89
2022-09-04T11:23:35.707Z,995.90
2022-09-04T11:24:35.687Z,995.89
2022-09-04T11:25:35.718Z,995.88
2022-09-04T11:26:35.671Z,995.91
2022-09-04T11:27:35.692Z,995.89
2022-09-04T11:28:35.659Z,995.86
2022-09-04T11:29:35.648Z,995.87
2022-09-04T11:30:35.648Z,995.81
2022-09-04T11:31:35.688Z,995.78
2022-09-04T11:32:35.659Z,995.80
2022-09-04T11:33:35.623Z,995.77
2022-09-04T11:34:35.611Z,995.77
2022-09-04T11:35:35.603Z,995.79
2022-09-04T11:36:35.595Z,995.78
2022-09-04T11:37:35.620Z,995.81
2022-09-04T11:38:35.594Z,995.82
2022-09-04T11:39:35.653Z,995.81
2022-09-04T11:40:35.573Z,995.77
2022-09-04T11:41:35.566Z,995.81
2022-09-04T11:42:35.582Z,995.82
2022-09-04T11:43:35.550Z,995.85
2022-09-04T11:44:35.544Z,995.82
2022-09-04T11:45:35.608Z,995.81
2022-09-04T11:46:35.531Z,995.91
2022-09-04T11:47:35.553Z,995.84
2022-09-04T11:48:35.520Z,995.82
2022-09-04T11:49:35.503Z,995.87
2022-09-04T11:50:35.504Z,995.83
2022-09-04T11:51:35.491Z,995.87
2022-09-04T11:52:35.515Z,995.84
2022-09-04T11:53:35.484Z,995.89
2022-09-04T11:54:35.471Z,995.84
2022-09-04T11:55:35.468Z,995.86
2022-09-04T11:56:35.460Z,995.87
2022-09-04T11:57:35.484Z,995.76
2022-09-04T11:58:35.438Z,995.83
2022-09-04T11:59:35.427Z,995.82
2022-09-04T12:00:35.425Z,995.87
2022-09-04T12:01:35.419Z,995.86
2022-09-04T12:02:35.438Z,995.76
2022-09-04T12:03:35.476Z,995.81
2022-09-04T12:04:35.399Z,995.89
2022-09-04T12:05:35.391Z,995.78
2022-09-04T12:06:35.379Z,995.78
2022-09-04T12:07:42.909Z,995.71
2022-09-04T12:08:37.392Z,995.74
2022-09-04T12:09:35.358Z,995.72
2022-09-04T12:10:35.356Z,995.75
2022-09-04T12:11:35.350Z,995.78
2022-09-04T12:12:35.344Z,995.79
2022-09-04T12:13:35.356Z,995.75
2022-09-04T12:14:35.322Z,995.81
2022-09-04T12:15:35.322Z,995.89
2022-09-04T12:16:35.365Z,995.81
2022-09-04T12:17:35.301Z,995.87
2022-09-04T12:18:35.325Z,995.79
2022-09-04T12:19:35.293Z,995.87
2022-09-04T12:20:35.281Z,995.85
2022-09-04T12:21:35.272Z,995.83
2022-09-04T12:22:35.263Z,995.78
2022-09-04T12:23:35.284Z,995.84
2022-09-04T12:24:35.250Z,995.81
2022-09-04T12:25:35.257Z,995.74
2022-09-04T12:26:35.244Z,995.78
2022-09-04T12:27:35.244Z,995.74
2022-09-04T12:28:35.253Z,995.78